Impacts TAF Board
For situational awareness. Not to be used for flight planning purposes.
IDs:

KDEN - Denver Intl, CO, US

Issued at 1124 UTC 16 Sep 2019
Updated at 1206 UTC 16 Sep 2019
Potential Impact None Slight Moderate High
Time<<17/01Z 17/02Z 17/03Z 17/04Z 17/05Z 17/06Z 17/07Z 17/08Z 17/09Z 17/10Z 17/11Z 17/12Z 17/13Z>>
Type PRVL PRVL PRVL PRVL PRVL PRVL PRVL PRVL PRVL PRVL PRVL PRVL PRVL
VIS >6 >6 >6 >6 >6 >6 >6 >6 >6 >6 >6 >6 >6
CIG 220 150 150 150 -- -- -- -- -- -- -- -- --
Cover BKN BKN BKN BKN SCT SCT SCT SCT SCT SCT SCT SCT SCT
FltCat VFR VFR VFR VFR VFR VFR VFR VFR VFR VFR VFR VFR VFR
WX -- -- -- -- -- -- -- -- -- -- -- -- --
WDir 90 140 140 140 220 220 220 220 220 220 220 220 220
WSpd 7 6 6 6 8 8 8 8 8 8 8 8 8
WGst -- -- -- -- -- -- -- -- -- -- -- -- --
Raw TAF
KDEN 161124Z 1612/1718 24012KT P6SM FEW150 BKN220
  FM161600 VRB06KT P6SM FEW150 BKN220
  FM161800 02006KT P6SM FEW120 SCT150 BKN220
  FM162100 09007KT P6SM SCT120 SCT150 BKN220
  FM170200 14006KT P6SM SCT100 BKN150
  FM170500 22008KT P6SM FEW120 SCT220


METAR Board
Radar Display
Forecast Discussion
For situational awareness. Not to be used for flight planning purposes.